Time;durP1;ratioP1;P1;durP2;ratioP2;P2;SDS_P1;SDS_P2;PMS_P1;PMS_P2;Temp;Humidity;BMP_temperature;BMP_pressure;BME280_temperature;BME280_humidity;BME280_pressure;Samples;Min_cycle;Max_cycle;Signal;HPM_P1;HPM_P2
2021/07/10 07:18:41;;;;;;;;;;;;;;;;;;1820499;77;20795;-63
2021/07/10 07:21:13;;;;;;;;;;;;;;;;;;1810973;77;20151;-64
2021/07/10 07:23:51;;;;;;;;;;;;;;;;;;1813734;77;21415;-68
2021/07/10 07:26:29;;;;;;;;;;;;;;;;;;1818040;77;20285;-69
2021/07/10 07:29:07;;;;;;;;;;;;;;;;;;1809305;77;20266;-63
2021/07/10 07:42:34;;;;;;;9.38;5.60;;;;;;;26.45;64.12;100681.42;1831021;77;24977;-66
2021/07/10 07:46:09;;;;;;;8.05;5.12;;;;;;;29.94;55.08;100665.30;1832445;77;25280;-66
2021/07/10 07:48:43;;;;;;;7.92;5.10;;;;;;;32.08;49.20;100668.41;1833487;77;22201;-62
2021/07/10 07:51:18;;;;;;;6.17;4.37;;;;;;;33.36;50.06;100655.05;1828949;77;22575;-61
2021/07/10 07:53:51;;;;;;;5.90;4.20;;;;;;;34.71;42.67;100651.59;1826917;77;22531;-58
2021/07/10 07:58:59;;;;;;;11.43;4.53;;;;;;;36.95;36.71;100645.95;1793093;77;22221;-62
2021/07/10 08:01:51;;;;;;;9.10;3.80;;;;;;;37.68;35.12;100650.85;1834412;77;22654;-62
2021/07/10 08:04:24;;;;;;;5.08;4.03;;;;;;;38.34;33.44;100647.71;1811504;77;22230;-62
2021/07/10 08:06:57;;;;;;;9.05;3.95;;;;;;;38.93;31.78;100651.25;1834466;77;22164;-59
2021/07/10 08:09:32;;;;;;;6.90;4.80;;;;;;;39.40;31.12;100646.06;1802168;77;22630;-62
2021/07/10 08:12:24;;;;;;;9.28;4.20;;;;;;;39.87;30.36;100643.55;1833147;77;22172;-58
2021/07/10 08:14:58;;;;;;;7.83;3.92;;;;;;;40.05;30.12;100643.48;1833590;77;22156;-61
2021/07/10 08:17:31;;;;;;;6.78;3.58;;;;;;;40.13;29.23;100650.19;1831686;77;22179;-63
2021/07/10 08:20:07;;;;;;;5.37;3.80;;;;;;;40.39;28.80;100647.20;1834437;77;22180;-58
2021/07/10 08:22:40;;;;;;;5.17;3.50;;;;;;;40.66;28.02;100652.20;1829500;77;22166;-62
2021/07/10 08:25:14;;;;;;;5.42;3.70;;;;;;;40.79;28.19;100651.89;1852851;77;22179;-58
2021/07/10 08:27:47;;;;;;;7.28;3.98;;;;;;;41.02;28.09;100644.55;1827795;77;22230;-64
2021/07/10 08:30:21;;;;;;;6.40;4.00;;;;;;;41.40;27.49;100651.29;1834443;77;22172;-58
2021/07/10 08:32:54;;;;;;;8.83;4.25;;;;;;;41.65;27.53;100645.92;1803420;77;22234;-62
2021/07/10 08:35:46;;;;;;;7.12;3.92;;;;;;;41.72;27.00;100645.36;1834386;77;22132;-58
2021/07/10 08:38:20;;;;;;;10.68;4.45;;;;;;;41.97;27.03;100643.23;1815610;77;22234;-62
2021/07/10 08:40:53;;;;;;;7.85;3.45;;;;;;;42.10;26.54;100646.44;1834450;77;22345;-58
2021/07/10 08:43:26;;;;;;;4.95;3.72;;;;;;;42.21;26.20;100644.87;1819291;77;22602;-62
2021/07/10 08:46:20;;;;;;;5.72;4.05;;;;;;;42.37;26.43;100643.51;1834433;77;22168;-58
2021/07/10 08:48:53;;;;;;;6.17;3.87;;;;;;;42.47;25.76;100652.70;1799815;77;22211;-58
2021/07/10 08:51:47;;;;;;;7.33;3.90;;;;;;;42.63;25.88;100650.74;1815326;77;22170;-58
2021/07/10 08:54:20;;;;;;;4.92;3.75;;;;;;;42.82;25.76;100645.86;1824877;77;22153;-62
2021/07/10 08:57:13;;;;;;;4.97;3.40;;;;;;;42.87;24.84;100652.39;1829046;77;22242;-62
2021/07/10 08:59:46;;;;;;;5.15;3.75;;;;;;;42.99;24.27;100646.11;1852714;77;22677;-61
2021/07/10 09:02:19;;;;;;;5.58;4.15;;;;;;;42.98;23.50;100641.09;1852629;77;22321;-58
2021/07/10 09:04:59;;;;;;;5.95;4.08;;;;;;;42.87;23.48;100643.22;1852795;77;22218;-62
2021/07/10 09:07:32;;;;;;;7.67;3.98;;;;;;;42.91;23.94;100638.41;1848474;77;22064;-62
2021/07/10 09:10:07;;;;;;;9.00;4.95;;;;;;;43.15;23.38;100641.34;1852770;77;22293;-58
2021/07/10 09:12:42;;;;;;;5.35;4.17;;;;;;;43.15;22.87;100639.12;1847986;77;22279;-58
2021/07/10 09:15:20;;;;;;;7.12;4.20;;;;;;;42.97;23.82;100642.72;1848058;77;22116;-58
2021/07/10 09:17:53;;;;;;;6.37;3.87;;;;;;;43.01;24.06;100644.80;1826750;77;22210;-62
2021/07/10 09:20:28;;;;;;;6.03;4.05;;;;;;;43.34;24.15;100641.39;1834467;77;22116;-59
2021/07/10 09:23:32;;;;;;;6.03;3.72;;;;;;;43.47;24.18;100638.98;1820631;77;22312;-65
2021/07/10 09:26:22;;;;;;;6.28;3.87;;;;;;;43.58;23.90;100642.37;1833490;77;22066;-65
2021/07/10 09:29:17;;;;;;;4.65;4.00;;;;;;;43.63;23.08;100642.52;1808373;77;22312;-57
2021/07/10 09:32:12;;;;;;;7.00;4.20;;;;;;;43.81;22.96;100643.05;1852762;77;22096;-58
2021/07/10 09:34:49;;;;;;;10.45;5.17;;;;;;;44.06;22.87;100640.69;1885702;74;27938;-62
2021/07/10 09:37:25;;;;;;;8.48;4.35;;;;;;;44.27;23.04;100641.25;1833818;77;22239;-58
2021/07/10 09:40:17;;;;;;;5.37;4.67;;;;;;;44.44;22.77;100638.62;1818947;77;38339;-62
2021/07/10 09:42:50;;;;;;;6.50;4.65;;;;;;;44.59;22.72;100639.56;1827171;77;22701;-63
2021/07/10 09:45:43;;;;;;;5.30;4.45;;;;;;;44.99;22.64;100629.16;1824878;77;22245;-63
2021/07/10 09:48:16;;;;;;;5.60;4.20;;;;;;;46.42;21.15;100625.88;1829082;77;22687;-62
2021/07/10 09:50:50;;;;;;;7.25;4.30;;;;;;;46.66;20.93;100629.06;1834430;77;22117;-58
2021/07/10 09:53:24;;;;;;;6.85;4.47;;;;;;;45.13;21.84;100631.68;1812074;77;22122;-62
2021/07/10 09:56:17;;;;;;;8.48;4.45;;;;;;;44.97;22.32;100631.33;1834420;77;22243;-63
2021/07/10 09:58:50;;;;;;;5.60;4.08;;;;;;;45.05;22.35;100629.27;1813844;77;22146;-63
2021/07/10 10:01:36;;;;;;;5.70;4.03;;;;;;;45.23;22.15;100619.41;1830488;77;22100;-58
2021/07/10 10:04:30;;;;;;;7.17;4.42;;;;;;;45.36;22.00;100613.29;1822765;77;22107;-63
2021/07/10 10:07:23;;;;;;;6.97;4.42;;;;;;;46.28;20.72;100610.61;1851882;77;22123;-63
2021/07/10 10:09:59;;;;;;;5.62;4.22;;;;;;;45.97;21.53;100608.11;1819996;77;22127;-58
2021/07/10 10:13:12;;;;;;;9.57;5.63;;;;;;;46.68;20.50;100608.77;1829844;77;28543;-58
2021/07/10 10:15:48;;;;;;;7.03;4.95;;;;;;;46.86;20.12;100611.84;1812184;77;22119;-58
2021/07/10 10:18:42;;;;;;;7.78;4.92;;;;;;;46.80;19.78;100604.48;1834160;77;22334;-63
2021/07/10 10:21:15;;;;;;;6.15;4.72;;;;;;;46.70;20.14;100604.62;1833902;77;22116;-58
2021/07/10 10:23:48;;;;;;;9.58;5.05;;;;;;;46.77;20.40;100602.50;1811182;77;22610;-62
2021/07/10 10:26:41;;;;;;;5.05;4.30;;;;;;;46.61;20.20;100598.66;1823550;77;22092;-58
2021/07/10 10:29:16;;;;;;;6.62;4.45;;;;;;;46.59;20.60;100593.03;1826182;77;22129;-63
2021/07/10 10:32:09;;;;;;;6.47;4.35;;;;;;;46.79;21.04;100594.45;1832018;77;22092;-62
2021/07/10 10:34:42;;;;;;;5.65;4.72;;;;;;;46.92;20.65;100589.94;1808153;77;22608;-63
2021/07/10 10:37:15;;;;;;;5.70;4.55;;;;;;;47.13;20.52;100592.44;1834454;77;22290;-63
2021/07/10 10:39:48;;;;;;;5.87;4.33;;;;;;;47.17;20.30;100592.22;1834453;77;22290;-63
2021/07/10 10:42:44;;;;;;;6.97;4.85;;;;;;;47.19;20.31;100583.59;1836789;77;22836;-64
2021/07/10 10:45:17;;;;;;;6.50;4.62;;;;;;;47.05;19.50;100585.36;1834415;77;22089;-58
2021/07/10 10:47:52;;;;;;;6.03;4.90;;;;;;;46.98;20.86;100582.48;1844709;77;22142;-58
2021/07/10 10:50:44;;;;;;;5.03;4.10;;;;;;;47.26;20.21;100589.84;1834450;77;22145;-58
2021/07/10 10:53:21;;;;;;;7.10;4.92;;;;;;;47.38;19.71;100580.51;1838078;77;22833;-58
2021/07/10 10:56:39;;;;;;;6.80;4.33;;;;;;;47.38;19.90;100581.34;1840675;77;22142;-63
2021/07/10 10:59:36;;;;;;;5.75;4.87;;;;;;;47.25;19.87;100583.15;1808965;77;22296;-58
2021/07/10 11:02:32;;;;;;;5.92;4.92;;;;;;;45.73;21.72;100578.20;1850621;77;22685;-64
2021/07/10 11:05:06;;;;;;;5.75;4.45;;;;;;;45.53;22.38;100580.01;1834364;77;22065;-58
2021/07/10 11:08:34;;;;;;;5.90;4.62;;;;;;;45.56;21.80;100573.42;1825410;77;22158;-58
2021/07/10 11:11:13;;;;;;;5.35;4.62;;;;;;;45.57;22.56;100572.34;1834404;77;22687;-63
2021/07/10 11:14:12;;;;;;;6.65;4.75;;;;;;;45.60;22.10;100565.42;1802600;77;22306;-63
2021/07/10 11:17:05;;;;;;;5.55;4.40;;;;;;;45.53;21.93;100563.34;1834469;77;20214;-58
2021/07/10 11:19:43;;;;;;;8.70;4.55;;;;;;;45.73;22.20;100561.52;1820702;77;22276;-58
2021/07/10 11:22:54;;;;;;;8.68;5.22;;;;;;;46.01;22.00;100562.02;1814486;77;22142;-58
2021/07/10 11:25:55;;;;;;;6.40;5.33;;;;;;;46.07;21.71;100555.19;1819892;77;22296;-58
2021/07/10 11:28:33;;;;;;;5.60;4.75;;;;;;;46.09;21.64;100551.08;1818683;77;22111;-64
2021/07/10 11:31:10;;;;;;;8.90;5.25;;;;;;;46.32;21.46;100557.55;1833430;77;22170;-59
2021/07/10 11:34:07;;;;;;;15.32;5.28;;;;;;;46.46;21.87;100558.92;1833318;77;22648;-63
2021/07/10 11:36:56;;;;;;;9.10;5.40;;;;;;;47.41;20.59;100545.16;1834432;77;22121;-59
2021/07/10 11:39:35;;;;;;;10.82;5.28;;;;;;;47.69;20.18;100551.05;1804936;77;22276;-63
2021/07/10 11:42:27;;;;;;;5.75;4.83;;;;;;;47.60;19.96;100559.59;1834411;77;22113;-62
2021/07/10 11:45:20;;;;;;;5.15;4.65;;;;;;;46.87;20.60;100549.50;1834411;77;22274;-63
2021/07/10 11:47:58;;;;;;;8.88;4.62;;;;;;;46.57;20.59;100551.56;1826809;77;22721;-59
2021/07/10 11:50:33;;;;;;;10.50;5.10;;;;;;;46.02;21.22;100547.59;1823744;77;22134;-59
2021/07/10 11:53:08;;;;;;;8.28;5.80;;;;;;;45.69;21.32;100544.52;1808394;77;28055;-59
2021/07/10 11:56:01;;;;;;;4.92;4.42;;;;;;;45.74;20.90;100534.88;1852779;77;22124;-68
2021/07/10 11:58:34;;;;;;;7.22;5.17;;;;;;;46.07;20.33;100532.95;1835489;77;22307;-59
2021/07/10 12:01:07;;;;;;;8.85;5.95;;;;;;;46.54;19.63;100535.37;1794353;77;22123;-64
2021/07/10 12:04:10;;;;;;;8.00;5.67;;;;;;;46.70;19.81;100535.03;1811686;77;22162;-62
2021/07/10 12:06:43;;;;;;;6.20;5.60;;;;;;;46.51;19.74;100529.48;1834506;77;22235;-63
2021/07/10 12:09:16;;;;;;;7.83;5.40;;;;;;;46.25;20.82;100521.56;1800985;77;22139;-62
2021/07/10 12:12:08;;;;;;;7.28;6.03;;;;;;;45.92;21.02;100525.16;1834464;77;22691;-62
2021/07/10 12:14:57;;;;;;;7.17;5.50;;;;;;;45.50;21.91;100524.41;1812536;77;22292;-63
2021/07/10 12:17:31;;;;;;;7.25;5.37;;;;;;;45.18;21.59;100525.41;1816660;77;22705;-58
2021/07/10 12:20:06;;;;;;;6.12;5.53;;;;;;;44.91;21.60;100520.42;1842625;78;22655;-58
2021/07/10 12:23:07;;;;;;;10.38;5.33;;;;;;;44.80;21.59;100516.00;1838251;78;23139;-58
2021/07/10 12:25:52;;;;;;;6.83;5.65;;;;;;;44.75;22.18;100522.83;1852880;77;22532;-59
2021/07/10 12:31:35;;;;;;;6.67;5.25;;;;;;;44.96;22.44;100519.98;1834348;77;22140;-62
2021/07/10 12:34:28;;;;;;;7.10;5.45;;;;;;;44.98;22.31;100510.03;1813168;78;22182;-62
2021/07/10 12:37:02;;;;;;;7.28;5.33;;;;;;;44.79;22.47;100501.00;1852667;77;22721;-58
2021/07/10 12:39:36;;;;;;;7.05;5.30;;;;;;;44.47;22.56;100506.41;1821102;77;22185;-58
2021/07/10 12:42:11;;;;;;;6.90;5.37;;;;;;;44.14;23.13;100506.97;1834435;77;22310;-62
2021/07/10 12:44:46;;;;;;;11.08;5.65;;;;;;;43.73;23.51;100497.89;1910113;74;22260;-62
2021/07/10 12:47:22;;;;;;;8.10;5.53;;;;;;;43.50;24.03;100496.70;1818631;77;22123;-63
2021/07/10 12:50:13;;;;;;;7.08;5.78;;;;;;;43.44;24.00;100492.13;1825209;77;22476;-59
2021/07/10 12:52:57;;;;;;;7.00;6.15;;;;;;;43.48;23.70;100493.34;1814910;77;22363;-63
2021/07/10 12:58:19;;;;;;;6.05;5.47;;;;;;;43.61;23.17;100478.97;1820764;77;22179;-58
2021/07/10 13:01:11;;;;;;;8.48;6.12;;;;;;;43.72;22.92;100478.19;1827015;77;22271;-59
2021/07/10 13:03:55;;;;;;;8.00;5.20;;;;;;;43.94;22.71;100481.24;1804854;77;22689;-58
2021/07/10 13:06:30;;;;;;;6.78;6.08;;;;;;;43.88;22.52;100483.58;1827964;77;22250;-62
2021/07/10 13:09:03;;;;;;;5.92;5.33;;;;;;;43.70;22.58;100479.53;1810940;77;22570;-63
2021/07/10 13:11:55;;;;;;;10.00;5.90;;;;;;;43.39;23.15;100474.81;1831362;77;22250;-58
2021/07/10 13:14:28;;;;;;;6.00;5.40;;;;;;;43.22;23.48;100465.46;1805184;77;22139;-58
2021/07/10 13:17:21;;;;;;;6.12;5.53;;;;;;;43.29;23.72;100468.98;1829229;77;22065;-58
2021/07/10 13:19:55;;;;;;;6.20;5.60;;;;;;;43.42;23.83;100452.74;1807108;77;22147;-59
2021/07/10 13:22:47;;;;;;;7.33;5.80;;;;;;;43.54;23.25;100458.30;1827849;77;22728;-58
2021/07/10 13:25:21;;;;;;;9.70;6.22;;;;;;;43.67;23.16;100448.44;1831315;77;22262;-58
2021/07/10 13:28:32;;;;;;;7.58;6.00;;;;;;;43.72;22.99;100445.50;1840184;77;22707;-58
2021/07/10 13:31:13;;;;;;;7.15;6.12;;;;;;;43.81;23.12;100435.73;1834435;77;22266;-58
2021/07/10 13:33:54;;;;;;;6.70;5.97;;;;;;;43.96;23.05;100435.25;1814803;77;22107;-58
2021/07/10 13:36:46;;;;;;;8.80;6.05;;;;;;;44.18;22.16;100438.85;1833458;77;22231;-58
2021/07/10 13:39:26;;;;;;;7.03;6.12;;;;;;;45.32;21.30;100431.55;1808460;77;22740;-58
2021/07/10 13:42:03;;;;;;;9.80;6.95;;;;;;;44.52;22.06;100426.07;1834559;77;22529;-58
2021/07/10 13:45:01;;;;;;;10.90;6.35;;;;;;;44.35;22.69;100430.11;1840650;77;22114;-63
2021/07/10 13:47:35;;;;;;;7.42;6.00;;;;;;;44.23;22.46;100428.71;1830858;77;22263;-58
2021/07/10 13:50:11;;;;;;;9.63;5.72;;;;;;;44.07;22.72;100430.29;1834393;77;22137;-58
2021/07/10 13:52:45;;;;;;;9.63;6.28;;;;;;;43.97;22.42;100433.64;1828739;77;22166;-58
2021/07/10 13:55:22;;;;;;;7.78;6.10;;;;;;;43.97;22.68;100433.64;1834259;77;22609;-58
2021/07/10 13:57:56;;;;;;;7.30;6.60;;;;;;;43.96;22.74;100431.95;1826112;77;22131;-63
2021/07/10 14:00:33;;;;;;;7.92;6.17;;;;;;;44.04;22.76;100424.37;1834410;77;22703;-63
2021/07/10 14:03:24;;;;;;;8.68;5.85;;;;;;;44.09;22.51;100420.36;1819668;77;22134;-62
2021/07/10 14:05:58;;;;;;;9.85;6.53;;;;;;;44.11;22.47;100419.02;1827798;77;22296;-62
2021/07/10 14:08:31;;;;;;;8.23;6.37;;;;;;;44.20;22.83;100418.10;1818232;77;22324;-62
2021/07/10 14:11:05;;;;;;;6.87;6.17;;;;;;;44.12;22.73;100415.72;1834400;77;22494;-62
2021/07/10 14:13:38;;;;;;;8.45;5.90;;;;;;;44.08;22.69;100418.11;1807153;77;22174;-63
2021/07/10 14:16:12;;;;;;;8.73;6.40;;;;;;;44.09;23.02;100418.98;1809565;77;22136;-62
2021/07/10 14:18:45;;;;;;;7.72;6.47;;;;;;;44.01;22.86;100420.69;1816038;77;22163;-62
2021/07/10 14:21:18;;;;;;;7.78;5.80;;;;;;;44.00;22.76;100415.67;1850590;77;22144;-62
2021/07/10 14:24:11;;;;;;;7.80;6.33;;;;;;;43.98;23.00;100411.77;1799187;77;22366;-62
2021/07/10 14:26:44;;;;;;;7.22;5.67;;;;;;;43.89;23.21;100416.53;1828306;77;23277;-58
2021/07/10 14:29:17;;;;;;;7.67;6.20;;;;;;;43.75;23.57;100412.60;1823998;77;22182;-62
2021/07/10 14:31:50;;;;;;;6.95;5.47;;;;;;;43.56;23.25;100412.34;1847474;77;22155;-60
2021/07/10 14:34:23;;;;;;;9.43;5.58;;;;;;;43.38;23.17;100408.59;1781529;77;22354;-61
2021/07/10 14:36:56;;;;;;;8.25;5.75;;;;;;;43.24;23.21;100399.09;1848379;77;22737;-62
2021/07/10 14:39:29;;;;;;;7.97;5.70;;;;;;;43.14;22.85;100402.11;1820657;77;22182;-58
2021/07/10 14:42:22;;;;;;;7.25;5.62;;;;;;;43.01;23.05;100395.67;1840258;77;23175;-58
2021/07/10 14:45:01;;;;;;;6.50;5.78;;;;;;;42.89;23.37;100392.00;1831683;77;22171;-58
2021/07/10 14:47:35;;;;;;;8.90;5.10;;;;;;;42.72;23.29;100391.77;1816141;77;22311;-58
2021/07/10 14:50:27;;;;;;;9.73;5.72;;;;;;;42.46;22.04;100382.19;1832410;77;22132;-57
2021/07/10 14:53:04;;;;;;;5.87;5.15;;;;;;;42.17;23.41;100381.03;1787569;77;22648;-63
2021/07/10 14:55:54;;;;;;;9.80;5.55;;;;;;;42.01;23.26;100378.30;1831023;77;22123;-58
2021/07/10 14:58:27;;;;;;;10.72;6.15;;;;;;;41.84;22.93;100371.96;1795555;77;22796;-63
2021/07/10 15:01:00;;;;;;;14.85;5.65;;;;;;;41.65;23.50;100381.26;1815444;77;22555;-63
2021/07/10 15:03:33;;;;;;;6.58;5.87;;;;;;;41.51;23.52;100377.19;1793172;77;22206;-58
2021/07/10 15:06:07;;;;;;;9.80;5.83;;;;;;;41.45;24.67;100376.17;1808073;77;22154;-58
2021/07/10 15:08:59;;;;;;;9.33;5.95;;;;;;;41.46;25.34;100383.95;1816541;77;22375;-58
2021/07/10 15:11:32;;;;;;;7.42;5.95;;;;;;;41.33;25.15;100376.58;1832633;77;22688;-57
2021/07/10 15:14:05;;;;;;;6.25;5.62;;;;;;;41.21;24.41;100372.31;1808390;77;22364;-57
2021/07/10 15:16:38;;;;;;;6.92;5.45;;;;;;;41.09;24.56;100370.77;1807529;77;22803;-63
2021/07/10 15:19:30;;;;;;;6.65;5.30;;;;;;;40.89;25.71;100369.52;1818240;77;22371;-58
2021/07/10 15:22:04;;;;;;;7.00;5.05;;;;;;;40.85;25.94;100372.39;1825978;77;22316;-58
2021/07/10 15:24:37;;;;;;;6.47;5.25;;;;;;;40.88;25.70;100369.20;1816792;77;22166;-62
2021/07/10 15:27:29;;;;;;;8.93;5.67;;;;;;;40.89;25.87;100362.61;1818750;77;22142;-63
2021/07/10 15:30:05;;;;;;;9.70;5.65;;;;;;;40.98;25.98;100364.05;1832497;77;22148;-58
2021/07/10 15:32:38;;;;;;;21.68;5.83;;;;;;;41.02;26.15;100364.44;1827991;77;20276;-63
2021/07/10 15:35:31;;;;;;;8.83;5.80;;;;;;;41.05;26.33;100357.10;1829400;77;22220;-63
2021/07/10 15:38:06;;;;;;;9.60;5.67;;;;;;;41.06;25.53;100356.04;1824346;77;22142;-58
2021/07/10 15:40:39;;;;;;;5.75;5.08;;;;;;;41.01;25.67;100356.72;1824337;77;22088;-62
2021/07/10 15:43:12;;;;;;;10.03;5.90;;;;;;;40.84;25.81;100356.91;1814919;77;22153;-62
2021/07/10 15:46:04;;;;;;;14.13;5.83;;;;;;;40.72;26.58;100350.70;1834605;77;22531;-58
2021/07/10 15:48:37;;;;;;;14.05;6.40;;;;;;;40.46;27.44;100348.87;1810567;77;22597;-57
2021/07/10 15:51:10;;;;;;;10.30;5.62;;;;;;;40.17;28.29;100351.06;1834378;77;22121;-58
2021/07/10 15:53:43;;;;;;;13.43;6.10;;;;;;;40.03;28.44;100349.39;1832563;77;22348;-64
2021/07/10 15:56:16;;;;;;;8.85;5.35;;;;;;;39.98;28.56;100363.27;1831473;77;22320;-64
2021/07/10 15:59:12;;;;;;;7.65;5.83;;;;;;;39.73;26.27;100362.22;1809580;77;22186;-58
2021/07/10 16:01:46;;;;;;;12.50;5.83;;;;;;;39.35;25.51;100369.19;1834357;77;22171;-63
2021/07/10 16:04:19;;;;;;;18.80;6.05;;;;;;;38.50;24.44;100371.72;1825146;77;22169;-64
2021/07/10 16:06:52;;;;;;;18.10;6.72;;;;;;;37.55;25.63;100392.64;1852802;77;22587;-58
2021/07/10 16:09:25;;;;;;;13.85;6.08;;;;;;;36.69;26.98;100408.73;1805916;77;22170;-66
2021/07/10 16:11:58;;;;;;;14.90;5.95;;;;;;;36.11;27.10;100407.13;1834484;77;22164;-63
2021/07/10 16:14:31;;;;;;;14.80;6.22;;;;;;;35.84;27.93;100406.64;1790028;77;22178;-58
2021/07/10 16:17:04;;;;;;;16.07;7.00;;;;;;;35.50;27.19;100401.98;1834450;77;22179;-63
2021/07/10 16:19:38;;;;;;;17.55;6.58;;;;;;;35.19;28.02;100402.83;1820777;77;22169;-63
2021/07/10 16:22:11;;;;;;;16.52;7.33;;;;;;;34.94;27.84;100402.95;1829356;77;22590;-58
2021/07/10 16:24:44;;;;;;;16.30;7.05;;;;;;;34.58;27.58;100403.95;1910093;74;22156;-58
2021/07/10 16:27:17;;;;;;;11.40;7.50;;;;;;;34.17;27.87;100404.89;1834435;77;22175;-62
2021/07/10 16:30:11;;;;;;;7.95;5.37;;;;;;;33.83;27.30;100405.89;1834489;77;22180;-58
2021/07/10 16:32:44;;;;;;;9.25;5.28;;;;;;;33.52;27.34;100408.80;1811040;77;22203;-58
2021/07/10 16:35:18;;;;;;;7.75;4.83;;;;;;;33.26;27.09;100411.62;1834279;77;22172;-58
2021/07/10 16:37:52;;;;;;;8.80;5.05;;;;;;;32.84;27.67;100412.87;1821539;77;22195;-58
2021/07/10 16:40:26;;;;;;;7.62;4.75;;;;;;;32.57;28.49;100410.65;1822386;77;22202;-58
2021/07/10 16:42:59;;;;;;;6.92;5.25;;;;;;;32.35;29.26;100416.14;1825361;77;22242;-61
2021/07/10 16:45:34;;;;;;;8.60;5.58;;;;;;;32.35;30.27;100410.70;1852704;77;22195;-61
2021/07/10 16:48:26;;;;;;;7.65;4.67;;;;;;;32.33;30.83;100414.09;1819194;77;22234;-61
2021/07/10 16:51:01;;;;;;;10.08;5.45;;;;;;;32.36;31.29;100409.68;1823534;77;22595;-61
2021/07/10 16:53:35;;;;;;;12.45;5.47;;;;;;;32.36;32.42;100400.15;1817390;77;22234;-57
2021/07/10 16:56:27;;;;;;;15.28;5.85;;;;;;;32.44;32.76;100400.20;1830074;77;22155;-57
2021/07/10 16:59:00;;;;;;;10.70;5.30;;;;;;;32.45;33.03;100402.44;1810814;77;22176;-58
2021/07/10 17:01:37;;;;;;;8.05;4.72;;;;;;;32.46;33.33;100413.16;1834329;77;23138;-57
2021/07/10 17:04:29;;;;;;;14.63;5.58;;;;;;;32.45;33.82;100441.41;1804256;77;22227;-58
2021/07/10 17:07:03;;;;;;;13.32;6.53;;;;;;;32.39;35.10;100443.41;1833682;77;22207;-62
2021/07/10 17:09:36;;;;;;;11.43;6.37;;;;;;;32.28;35.08;100439.55;1821001;77;22229;-57
2021/07/10 17:12:10;;;;;;;7.47;5.83;;;;;;;32.05;35.42;100437.35;1833016;77;22168;-61
2021/07/10 17:14:43;;;;;;;10.93;7.10;;;;;;;31.91;35.07;100441.50;1819635;77;22213;-62
2021/07/10 17:17:35;;;;;;;14.70;7.08;;;;;;;31.74;35.66;100434.55;1822379;77;22186;-62
2021/07/10 17:20:12;;;;;;;16.62;7.12;;;;;;;31.61;35.65;100438.13;1834445;77;22176;-62
2021/07/10 17:23:05;;;;;;;12.50;7.00;;;;;;;31.51;35.97;100436.00;1822279;77;22211;-57
2021/07/10 17:25:38;;;;;;;9.63;6.35;;;;;;;31.47;36.21;100438.16;1816217;77;22191;-62
2021/07/10 17:28:11;;;;;;;10.32;6.40;;;;;;;31.38;36.70;100437.23;1795649;77;22267;-57
2021/07/10 17:31:14;;;;;;;11.65;6.67;;;;;;;31.28;37.13;100440.51;1834008;77;22172;-57
2021/07/10 17:33:47;;;;;;;36.15;9.53;;;;;;;31.19;37.99;100439.57;1813499;77;22190;-58
2021/07/10 17:36:44;;;;;;;26.95;8.18;;;;;;;31.10;38.62;100437.72;1834439;77;22209;-62
2021/07/10 17:39:17;;;;;;;12.65;7.28;;;;;;;30.88;39.19;100429.48;1821472;77;22217;-57
2021/07/10 17:41:50;;;;;;;56.48;11.08;;;;;;;30.75;39.55;100449.69;1799939;77;22209;-58
2021/07/10 17:44:43;;;;;;;41.35;9.75;;;;;;;30.69;40.40;100440.77;1810658;77;22185;-57
2021/07/10 17:47:16;;;;;;;30.68;9.93;;;;;;;30.58;40.55;100436.91;1821488;77;22191;-57
2021/07/10 17:49:49;;;;;;;22.80;7.78;;;;;;;30.49;40.95;100439.95;1809226;77;22543;-57
2021/07/10 17:52:42;;;;;;;12.15;7.03;;;;;;;30.34;41.47;100440.44;1820177;77;22606;-57
2021/07/10 17:55:15;;;;;;;15.90;7.90;;;;;;;30.20;41.96;100443.11;1846720;77;22143;-61
2021/07/10 17:57:49;;;;;;;14.60;7.90;;;;;;;30.03;42.37;100441.97;1820949;77;22622;-62
2021/07/10 18:00:41;;;;;;;12.63;8.45;;;;;;;29.89;43.00;100439.69;1814536;77;22182;-61
2021/07/10 18:03:15;;;;;;;18.05;9.85;;;;;;;29.79;42.98;100439.70;1821859;77;22630;-57
2021/07/10 18:06:08;;;;;;;17.07;9.98;;;;;;;29.71;43.23;100435.48;1834399;77;22192;-62
2021/07/10 18:08:41;;;;;;;17.42;9.55;;;;;;;29.62;43.43;100437.17;1813701;77;22191;-57
2021/07/10 18:11:15;;;;;;;17.40;9.80;;;;;;;29.55;43.57;100436.89;1852736;77;22179;-61
2021/07/10 18:13:50;;;;;;;13.68;9.18;;;;;;;29.48;43.61;100437.96;1814285;77;22178;-62
2021/07/10 18:16:24;;;;;;;14.75;9.30;;;;;;;29.29;44.16;100449.59;1852740;77;22203;-57
2021/07/10 18:18:57;;;;;;;13.72;8.73;;;;;;;29.34;44.19;100449.17;1811978;77;22196;-61
2021/07/10 18:21:31;;;;;;;11.73;8.58;;;;;;;29.26;44.64;100458.01;1834383;77;22187;-58
2021/07/10 18:24:24;;;;;;;12.63;7.95;;;;;;;29.19;44.82;100453.62;1806420;77;22198;-62
2021/07/10 18:26:57;;;;;;;16.02;7.97;;;;;;;29.08;45.10;100453.23;1833607;77;22195;-58
2021/07/10 18:29:31;;;;;;;15.38;8.45;;;;;;;28.96;45.34;100462.97;1800588;77;23038;-57
2021/07/10 18:32:24;;;;;;;62.90;12.03;;;;;;;28.74;45.98;100468.89;1816731;77;22140;-58
2021/07/10 18:34:58;;;;;;;24.15;9.45;;;;;;;28.76;45.77;100465.58;1826173;77;22686;-61
2021/07/10 18:37:31;;;;;;;19.62;8.90;;;;;;;28.42;46.60;100477.98;1820001;77;22212;-61
2021/07/10 18:40:24;;;;;;;11.65;8.55;;;;;;;28.45;46.49;100474.53;1819737;77;22217;-57
2021/07/10 18:42:59;;;;;;;10.93;8.18;;;;;;;28.38;46.51;100478.75;1825718;77;22226;-61
2021/07/10 18:45:51;;;;;;;14.68;9.38;;;;;;;28.28;46.72;100473.25;1816984;77;22164;-61
2021/07/10 18:48:24;;;;;;;15.08;10.63;;;;;;;28.22;46.91;100475.64;1824151;77;22225;-57
2021/07/10 18:50:58;;;;;;;18.48;10.90;;;;;;;28.13;47.18;100474.08;1834414;77;22188;-57
2021/07/10 18:53:31;;;;;;;16.45;11.00;;;;;;;27.95;47.62;100471.58;1815760;77;22615;-61
2021/07/10 18:56:05;;;;;;;14.45;10.50;;;;;;;27.68;48.23;100468.83;1837274;77;22569;-57
2021/07/10 18:58:39;;;;;;;19.02;10.43;;;;;;;27.47;48.72;100469.61;1816446;77;22226;-60
2021/07/10 19:01:14;;;;;;;20.43;10.55;;;;;;;27.35;49.07;100470.61;1831717;77;22210;-57
2021/07/10 19:03:47;;;;;;;17.35;11.38;;;;;;;27.28;49.33;100464.86;1806801;77;22180;-60
2021/07/10 19:06:41;;;;;;;18.45;13.22;;;;;;;27.26;49.80;100466.33;1828199;77;22622;-60
2021/07/10 19:09:14;;;;;;;20.57;13.78;;;;;;;27.26;49.73;100461.43;1791143;77;22219;-60
2021/07/10 19:12:07;;;;;;;21.33;15.45;;;;;;;27.24;49.94;100464.23;1845415;77;22166;-57
2021/07/10 19:14:42;;;;;;;26.77;19.65;;;;;;;27.25;50.14;100468.66;1804314;77;28559;-57
2021/07/10 19:17:15;;;;;;;22.62;17.17;;;;;;;27.32;50.11;100466.33;1843106;77;22189;-57
2021/07/10 19:19:49;;;;;;;26.97;17.05;;;;;;;27.32;50.24;100466.33;1823806;77;22174;-60
2021/07/10 19:22:22;;;;;;;21.37;16.20;;;;;;;27.28;50.43;100458.11;1823703;77;22186;-60
2021/07/10 19:25:17;;;;;;;37.78;18.80;;;;;;;27.22;50.72;100466.20;1820659;77;22146;-60
2021/07/10 19:27:51;;;;;;;29.75;16.67;;;;;;;27.18;50.94;100461.19;1821997;77;20161;-61
2021/07/10 19:30:44;;;;;;;23.50;16.20;;;;;;;27.14;51.09;100461.95;1803852;77;22158;-60
2021/07/10 19:33:23;;;;;;;25.75;16.45;;;;;;;27.11;51.30;100456.79;1818674;77;22178;-61
2021/07/10 19:35:56;;;;;;;22.50;15.18;;;;;;;27.09;51.24;100461.45;1817768;77;22485;-57
2021/07/10 19:38:29;;;;;;;22.80;15.20;;;;;;;27.05;51.33;100455.93;1817550;77;22218;-57
2021/07/10 19:41:02;;;;;;;19.75;14.43;;;;;;;26.99;51.46;100455.44;1852773;77;22175;-57
2021/07/10 19:43:36;;;;;;;18.20;12.53;;;;;;;26.91;51.51;100454.35;1802311;77;22633;-57
2021/07/10 19:46:11;;;;;;;15.75;11.63;;;;;;;26.83;51.59;100453.12;1826881;77;22155;-57
2021/07/10 19:48:44;;;;;;;19.23;12.40;;;;;;;26.83;51.49;100454.94;1814762;77;22602;-57
2021/07/10 19:51:17;;;;;;;17.12;12.50;;;;;;;26.69;51.64;100458.72;1787480;77;22217;-60
2021/07/10 19:54:09;;;;;;;17.85;12.20;;;;;;;26.60;51.89;100454.04;1809576;77;22210;-60
2021/07/10 19:56:42;;;;;;;29.05;12.37;;;;;;;26.53;51.94;100459.07;1826839;77;22147;-60
2021/07/10 19:59:15;;;;;;;18.07;12.03;;;;;;;26.52;51.91;100459.55;1808730;77;22198;-60
2021/07/10 20:01:49;;;;;;;16.48;11.63;;;;;;;26.44;52.05;100464.71;1816251;77;22197;-60